sensor_id;sensor_type;location;lat;lon;timestamp;P1;durP1;ratioP1;P2;durP2;ratioP2
31378;SDS011;61664;48.112;11.662;2023-02-11T00:00:39;13.40;;;8.45;;
31378;SDS011;61664;48.112;11.662;2023-02-11T00:03:07;14.63;;;8.93;;
31378;SDS011;61664;48.112;11.662;2023-02-11T00:05:35;13.65;;;8.43;;
31378;SDS011;61664;48.112;11.662;2023-02-11T00:08:02;12.45;;;7.60;;
31378;SDS011;61664;48.112;11.662;2023-02-11T00:10:29;13.43;;;7.95;;
31378;SDS011;61664;48.112;11.662;2023-02-11T00:12:56;13.95;;;8.57;;
31378;SDS011;61664;48.112;11.662;2023-02-11T00:15:22;12.07;;;8.25;;
31378;SDS011;61664;48.112;11.662;2023-02-11T00:17:49;13.68;;;8.45;;
31378;SDS011;61664;48.112;11.662;2023-02-11T00:20:16;12.27;;;7.47;;
31378;SDS011;61664;48.112;11.662;2023-02-11T00:22:43;10.60;;;7.53;;
31378;SDS011;61664;48.112;11.662;2023-02-11T00:25:10;13.13;;;7.72;;
31378;SDS011;61664;48.112;11.662;2023-02-11T00:27:37;10.65;;;7.28;;
31378;SDS011;61664;48.112;11.662;2023-02-11T00:30:04;11.48;;;7.47;;
31378;SDS011;61664;48.112;11.662;2023-02-11T00:32:31;8.93;;;6.88;;
31378;SDS011;61664;48.112;11.662;2023-02-11T00:34:58;11.35;;;7.75;;
31378;SDS011;61664;48.112;11.662;2023-02-11T00:37:25;19.05;;;7.40;;
31378;SDS011;61664;48.112;11.662;2023-02-11T00:39:52;9.82;;;6.60;;
31378;SDS011;61664;48.112;11.662;2023-02-11T00:42:19;9.77;;;6.60;;
31378;SDS011;61664;48.112;11.662;2023-02-11T00:44:46;10.50;;;7.15;;
31378;SDS011;61664;48.112;11.662;2023-02-11T00:47:13;13.13;;;7.43;;
31378;SDS011;61664;48.112;11.662;2023-02-11T00:49:39;10.25;;;6.40;;
31378;SDS011;61664;48.112;11.662;2023-02-11T00:52:06;9.48;;;6.65;;
31378;SDS011;61664;48.112;11.662;2023-02-11T00:54:33;9.95;;;6.47;;
31378;SDS011;61664;48.112;11.662;2023-02-11T00:57:00;12.50;;;7.82;;
31378;SDS011;61664;48.112;11.662;2023-02-11T00:59:27;10.68;;;7.00;;
31378;SDS011;61664;48.112;11.662;2023-02-11T01:01:54;9.55;;;6.68;;
31378;SDS011;61664;48.112;11.662;2023-02-11T01:04:21;9.73;;;7.03;;
31378;SDS011;61664;48.112;11.662;2023-02-11T01:06:48;9.68;;;6.35;;
31378;SDS011;61664;48.112;11.662;2023-02-11T01:09:15;11.52;;;6.53;;
31378;SDS011;61664;48.112;11.662;2023-02-11T01:11:42;10.52;;;7.40;;
31378;SDS011;61664;48.112;11.662;2023-02-11T01:14:09;9.20;;;6.43;;
31378;SDS011;61664;48.112;11.662;2023-02-11T01:16:36;9.80;;;6.65;;
31378;SDS011;61664;48.112;11.662;2023-02-11T01:19:03;8.80;;;6.35;;
31378;SDS011;61664;48.112;11.662;2023-02-11T01:21:30;9.80;;;6.72;;
31378;SDS011;61664;48.112;11.662;2023-02-11T01:23:56;8.70;;;6.30;;
31378;SDS011;61664;48.112;11.662;2023-02-11T01:26:24;10.75;;;7.18;;
31378;SDS011;61664;48.112;11.662;2023-02-11T01:28:51;8.70;;;5.97;;
31378;SDS011;61664;48.112;11.662;2023-02-11T01:31:18;8.38;;;6.32;;
31378;SDS011;61664;48.112;11.662;2023-02-11T01:33:44;9.65;;;6.78;;
31378;SDS011;61664;48.112;11.662;2023-02-11T01:36:11;12.27;;;6.40;;
31378;SDS011;61664;48.112;11.662;2023-02-11T01:38:38;10.50;;;5.55;;
31378;SDS011;61664;48.112;11.662;2023-02-11T01:41:07;10.07;;;6.97;;
31378;SDS011;61664;48.112;11.662;2023-02-11T01:46:44;7.00;;;4.97;;
31378;SDS011;61664;48.112;11.662;2023-02-11T01:49:06;10.43;;;5.68;;
31378;SDS011;61664;48.112;11.662;2023-02-11T01:51:47;11.85;;;6.53;;
31378;SDS011;61664;48.112;11.662;2023-02-11T01:54:19;7.38;;;5.65;;
31378;SDS011;61664;48.112;11.662;2023-02-11T01:57:10;8.25;;;6.35;;
31378;SDS011;61664;48.112;11.662;2023-02-11T02:11:09;7.30;;;5.75;;
31378;SDS011;61664;48.112;11.662;2023-02-11T02:13:36;9.25;;;6.00;;
31378;SDS011;61664;48.112;11.662;2023-02-11T02:16:04;8.88;;;5.93;;
31378;SDS011;61664;48.112;11.662;2023-02-11T02:31:38;8.63;;;6.22;;
31378;SDS011;61664;48.112;11.662;2023-02-11T02:35:25;8.50;;;4.82;;
31378;SDS011;61664;48.112;11.662;2023-02-11T02:37:39;7.10;;;5.30;;
31378;SDS011;61664;48.112;11.662;2023-02-11T02:40:11;7.63;;;5.80;;
31378;SDS011;61664;48.112;11.662;2023-02-11T02:42:48;9.02;;;5.93;;
31378;SDS011;61664;48.112;11.662;2023-02-11T02:45:17;6.60;;;5.75;;
31378;SDS011;61664;48.112;11.662;2023-02-11T02:47:45;9.55;;;6.47;;
31378;SDS011;61664;48.112;11.662;2023-02-11T02:50:12;8.32;;;6.00;;
31378;SDS011;61664;48.112;11.662;2023-02-11T03:05:11;9.93;;;5.97;;
31378;SDS011;61664;48.112;11.662;2023-02-11T03:12:58;10.00;;;5.72;;
31378;SDS011;61664;48.112;11.662;2023-02-11T03:15:28;11.30;;;6.28;;
31378;SDS011;61664;48.112;11.662;2023-02-11T03:18:02;9.60;;;5.43;;
31378;SDS011;61664;48.112;11.662;2023-02-11T03:20:35;7.82;;;5.38;;
31378;SDS011;61664;48.112;11.662;2023-02-11T03:39:13;6.30;;;4.63;;
31378;SDS011;61664;48.112;11.662;2023-02-11T03:41:50;5.50;;;4.05;;
31378;SDS011;61664;48.112;11.662;2023-02-11T03:44:20;5.70;;;4.20;;
31378;SDS011;61664;48.112;11.662;2023-02-11T03:46:51;5.35;;;3.95;;
31378;SDS011;61664;48.112;11.662;2023-02-11T03:49:21;4.55;;;4.13;;
31378;SDS011;61664;48.112;11.662;2023-02-11T03:51:51;5.10;;;4.25;;
31378;SDS011;61664;48.112;11.662;2023-02-11T03:54:23;3.95;;;3.47;;
31378;SDS011;61664;48.112;11.662;2023-02-11T03:56:56;5.68;;;3.95;;
31378;SDS011;61664;48.112;11.662;2023-02-11T03:59:26;5.55;;;4.03;;
31378;SDS011;61664;48.112;11.662;2023-02-11T04:01:54;4.15;;;3.53;;
31378;SDS011;61664;48.112;11.662;2023-02-11T04:06:51;4.07;;;3.03;;
31378;SDS011;61664;48.112;11.662;2023-02-11T04:09:18;3.90;;;3.53;;
31378;SDS011;61664;48.112;11.662;2023-02-11T04:11:45;3.78;;;2.97;;
31378;SDS011;61664;48.112;11.662;2023-02-11T04:14:12;4.80;;;3.20;;
31378;SDS011;61664;48.112;11.662;2023-02-11T04:16:38;5.10;;;3.50;;
31378;SDS011;61664;48.112;11.662;2023-02-11T04:19:05;3.97;;;3.35;;
31378;SDS011;61664;48.112;11.662;2023-02-11T04:21:33;5.80;;;3.80;;
31378;SDS011;61664;48.112;11.662;2023-02-11T04:23:59;4.53;;;3.60;;
31378;SDS011;61664;48.112;11.662;2023-02-11T04:26:26;4.18;;;3.78;;
31378;SDS011;61664;48.112;11.662;2023-02-11T04:28:53;4.18;;;3.50;;
31378;SDS011;61664;48.112;11.662;2023-02-11T04:31:20;3.58;;;3.28;;
31378;SDS011;61664;48.112;11.662;2023-02-11T04:33:50;5.05;;;3.67;;
31378;SDS011;61664;48.112;11.662;2023-02-11T04:36:17;5.85;;;3.50;;
31378;SDS011;61664;48.112;11.662;2023-02-11T04:38:44;6.38;;;3.72;;
31378;SDS011;61664;48.112;11.662;2023-02-11T04:41:10;3.95;;;3.58;;
31378;SDS011;61664;48.112;11.662;2023-02-11T04:43:37;4.07;;;2.97;;
31378;SDS011;61664;48.112;11.662;2023-02-11T04:46:04;3.70;;;3.22;;
31378;SDS011;61664;48.112;11.662;2023-02-11T04:48:31;4.38;;;3.47;;
31378;SDS011;61664;48.112;11.662;2023-02-11T04:51:00;3.67;;;3.30;;
31378;SDS011;61664;48.112;11.662;2023-02-11T04:53:27;3.97;;;3.65;;
31378;SDS011;61664;48.112;11.662;2023-02-11T04:55:54;3.47;;;3.17;;
31378;SDS011;61664;48.112;11.662;2023-02-11T04:58:21;6.97;;;3.70;;
31378;SDS011;61664;48.112;11.662;2023-02-11T05:00:48;5.40;;;3.75;;
31378;SDS011;61664;48.112;11.662;2023-02-11T05:03:15;4.45;;;3.47;;
31378;SDS011;61664;48.112;11.662;2023-02-11T05:05:42;4.53;;;3.47;;
31378;SDS011;61664;48.112;11.662;2023-02-11T05:08:10;5.28;;;3.83;;
31378;SDS011;61664;48.112;11.662;2023-02-11T05:10:38;7.47;;;3.97;;
31378;SDS011;61664;48.112;11.662;2023-02-11T05:13:05;4.65;;;3.63;;
31378;SDS011;61664;48.112;11.662;2023-02-11T05:15:31;3.60;;;3.20;;
31378;SDS011;61664;48.112;11.662;2023-02-11T05:17:58;4.28;;;3.58;;
31378;SDS011;61664;48.112;11.662;2023-02-11T05:20:25;6.15;;;3.72;;
31378;SDS011;61664;48.112;11.662;2023-02-11T05:22:52;4.20;;;3.63;;
31378;SDS011;61664;48.112;11.662;2023-02-11T05:25:19;3.78;;;3.22;;
31378;SDS011;61664;48.112;11.662;2023-02-11T05:27:46;5.78;;;4.13;;
31378;SDS011;61664;48.112;11.662;2023-02-11T05:30:13;4.63;;;3.70;;
31378;SDS011;61664;48.112;11.662;2023-02-11T05:32:40;4.18;;;3.78;;
31378;SDS011;61664;48.112;11.662;2023-02-11T05:35:07;3.40;;;3.03;;
31378;SDS011;61664;48.112;11.662;2023-02-11T05:37:34;5.45;;;3.47;;
31378;SDS011;61664;48.112;11.662;2023-02-11T05:40:02;7.25;;;3.85;;
31378;SDS011;61664;48.112;11.662;2023-02-11T05:42:29;5.82;;;3.85;;
31378;SDS011;61664;48.112;11.662;2023-02-11T05:44:56;4.30;;;3.88;;
31378;SDS011;61664;48.112;11.662;2023-02-11T05:47:23;3.85;;;3.55;;
31378;SDS011;61664;48.112;11.662;2023-02-11T05:49:50;6.72;;;4.50;;
31378;SDS011;61664;48.112;11.662;2023-02-11T05:52:19;5.75;;;4.03;;
31378;SDS011;61664;48.112;11.662;2023-02-11T05:54:47;5.45;;;3.90;;
31378;SDS011;61664;48.112;11.662;2023-02-11T05:57:14;4.78;;;3.80;;
31378;SDS011;61664;48.112;11.662;2023-02-11T05:59:42;5.10;;;3.83;;
31378;SDS011;61664;48.112;11.662;2023-02-11T06:02:09;4.68;;;3.33;;
31378;SDS011;61664;48.112;11.662;2023-02-11T06:04:36;4.30;;;3.65;;
31378;SDS011;61664;48.112;11.662;2023-02-11T06:07:03;5.85;;;4.20;;
31378;SDS011;61664;48.112;11.662;2023-02-11T06:09:30;4.68;;;3.92;;
31378;SDS011;61664;48.112;11.662;2023-02-11T06:11:57;6.25;;;3.75;;
31378;SDS011;61664;48.112;11.662;2023-02-11T06:14:24;4.22;;;3.67;;
31378;SDS011;61664;48.112;11.662;2023-02-11T06:16:51;5.53;;;4.05;;
31378;SDS011;61664;48.112;11.662;2023-02-11T06:19:18;3.53;;;3.22;;
31378;SDS011;61664;48.112;11.662;2023-02-11T06:21:44;4.32;;;3.90;;
31378;SDS011;61664;48.112;11.662;2023-02-11T06:24:11;7.28;;;3.42;;
31378;SDS011;61664;48.112;11.662;2023-02-11T06:26:38;5.25;;;3.78;;
31378;SDS011;61664;48.112;11.662;2023-02-11T06:29:05;5.32;;;4.57;;
31378;SDS011;61664;48.112;11.662;2023-02-11T06:31:32;4.75;;;4.20;;
31378;SDS011;61664;48.112;11.662;2023-02-11T06:33:59;4.72;;;3.75;;
31378;SDS011;61664;48.112;11.662;2023-02-11T06:36:26;4.53;;;3.75;;
31378;SDS011;61664;48.112;11.662;2023-02-11T06:38:53;4.30;;;2.95;;
31378;SDS011;61664;48.112;11.662;2023-02-11T06:41:20;4.30;;;3.28;;
31378;SDS011;61664;48.112;11.662;2023-02-11T06:43:48;4.03;;;3.63;;
31378;SDS011;61664;48.112;11.662;2023-02-11T06:46:15;5.13;;;3.75;;
31378;SDS011;61664;48.112;11.662;2023-02-11T06:48:42;4.63;;;4.05;;
31378;SDS011;61664;48.112;11.662;2023-02-11T06:51:10;6.22;;;3.30;;
31378;SDS011;61664;48.112;11.662;2023-02-11T06:53:40;3.35;;;3.05;;
31378;SDS011;61664;48.112;11.662;2023-02-11T06:56:11;5.90;;;4.15;;
31378;SDS011;61664;48.112;11.662;2023-02-11T06:58:45;3.70;;;3.30;;
31378;SDS011;61664;48.112;11.662;2023-02-11T07:01:14;4.80;;;3.80;;
31378;SDS011;61664;48.112;11.662;2023-02-11T07:03:42;5.60;;;3.15;;
31378;SDS011;61664;48.112;11.662;2023-02-11T07:06:12;4.75;;;3.58;;
31378;SDS011;61664;48.112;11.662;2023-02-11T07:08:42;3.35;;;3.05;;
31378;SDS011;61664;48.112;11.662;2023-02-11T07:11:12;3.30;;;3.00;;
31378;SDS011;61664;48.112;11.662;2023-02-11T07:13:42;4.13;;;3.10;;
31378;SDS011;61664;48.112;11.662;2023-02-11T07:16:10;4.57;;;3.38;;
31378;SDS011;61664;48.112;11.662;2023-02-11T07:18:42;3.05;;;2.75;;
31378;SDS011;61664;48.112;11.662;2023-02-11T07:21:10;3.50;;;3.20;;
31378;SDS011;61664;48.112;11.662;2023-02-11T07:23:40;3.25;;;2.95;;
31378;SDS011;61664;48.112;11.662;2023-02-11T07:26:08;7.72;;;3.17;;
31378;SDS011;61664;48.112;11.662;2023-02-11T07:28:39;5.00;;;4.15;;
31378;SDS011;61664;48.112;11.662;2023-02-11T07:31:20;7.65;;;3.88;;
31378;SDS011;61664;48.112;11.662;2023-02-11T07:33:54;7.05;;;6.28;;
31378;SDS011;61664;48.112;11.662;2023-02-11T07:36:25;3.97;;;3.60;;
31378;SDS011;61664;48.112;11.662;2023-02-11T07:38:55;7.03;;;4.63;;
31378;SDS011;61664;48.112;11.662;2023-02-11T07:41:22;8.65;;;5.90;;
31378;SDS011;61664;48.112;11.662;2023-02-11T07:43:50;7.55;;;5.72;;
31378;SDS011;61664;48.112;11.662;2023-02-11T07:46:19;11.93;;;6.85;;
31378;SDS011;61664;48.112;11.662;2023-02-11T07:48:49;8.57;;;5.30;;
31378;SDS011;61664;48.112;11.662;2023-02-11T07:51:21;4.63;;;3.80;;
31378;SDS011;61664;48.112;11.662;2023-02-11T07:53:51;4.72;;;3.75;;
31378;SDS011;61664;48.112;11.662;2023-02-11T07:56:20;5.13;;;3.80;;
31378;SDS011;61664;48.112;11.662;2023-02-11T07:58:48;3.75;;;3.35;;
31378;SDS011;61664;48.112;11.662;2023-02-11T08:01:18;5.75;;;3.83;;
31378;SDS011;61664;48.112;11.662;2023-02-11T08:03:52;4.68;;;3.63;;
31378;SDS011;61664;48.112;11.662;2023-02-11T08:06:21;7.88;;;3.45;;
31378;SDS011;61664;48.112;11.662;2023-02-11T08:08:51;4.40;;;3.65;;
31378;SDS011;61664;48.112;11.662;2023-02-11T08:11:22;5.22;;;4.10;;
31378;SDS011;61664;48.112;11.662;2023-02-11T08:13:51;6.57;;;3.53;;
31378;SDS011;61664;48.112;11.662;2023-02-11T08:18:58;5.18;;;4.20;;
31378;SDS011;61664;48.112;11.662;2023-02-11T08:21:31;6.43;;;4.20;;
31378;SDS011;61664;48.112;11.662;2023-02-11T08:23:59;5.40;;;3.95;;
31378;SDS011;61664;48.112;11.662;2023-02-11T08:26:29;6.32;;;3.63;;
31378;SDS011;61664;48.112;11.662;2023-02-11T08:29:00;4.95;;;4.15;;
31378;SDS011;61664;48.112;11.662;2023-02-11T08:31:32;11.30;;;4.60;;
31378;SDS011;61664;48.112;11.662;2023-02-11T08:34:02;10.15;;;4.18;;
31378;SDS011;61664;48.112;11.662;2023-02-11T08:36:31;7.22;;;4.00;;
31378;SDS011;61664;48.112;11.662;2023-02-11T08:39:02;4.82;;;4.30;;
31378;SDS011;61664;48.112;11.662;2023-02-11T08:41:45;6.07;;;4.80;;
31378;SDS011;61664;48.112;11.662;2023-02-11T08:44:14;10.43;;;5.23;;
31378;SDS011;61664;48.112;11.662;2023-02-11T08:46:43;4.85;;;4.10;;
31378;SDS011;61664;48.112;11.662;2023-02-11T08:49:10;8.00;;;4.35;;
31378;SDS011;61664;48.112;11.662;2023-02-11T08:51:37;6.75;;;4.63;;
31378;SDS011;61664;48.112;11.662;2023-02-11T08:54:04;8.13;;;4.47;;
31378;SDS011;61664;48.112;11.662;2023-02-11T08:56:35;5.88;;;4.80;;
31378;SDS011;61664;48.112;11.662;2023-02-11T08:59:03;5.80;;;4.50;;
31378;SDS011;61664;48.112;11.662;2023-02-11T09:01:31;9.13;;;5.22;;
31378;SDS011;61664;48.112;11.662;2023-02-11T09:03:59;6.32;;;4.80;;
31378;SDS011;61664;48.112;11.662;2023-02-11T09:06:26;5.78;;;4.22;;
31378;SDS011;61664;48.112;11.662;2023-02-11T09:08:55;6.57;;;5.03;;
31378;SDS011;61664;48.112;11.662;2023-02-11T09:11:27;6.05;;;4.22;;
31378;SDS011;61664;48.112;11.662;2023-02-11T09:13:58;6.00;;;4.95;;
31378;SDS011;61664;48.112;11.662;2023-02-11T09:16:28;6.80;;;4.75;;
31378;SDS011;61664;48.112;11.662;2023-02-11T09:18:58;7.30;;;4.82;;
31378;SDS011;61664;48.112;11.662;2023-02-11T09:21:27;9.50;;;5.18;;
31378;SDS011;61664;48.112;11.662;2023-02-11T09:23:55;9.75;;;5.68;;
31378;SDS011;61664;48.112;11.662;2023-02-11T09:26:26;10.02;;;4.93;;
31378;SDS011;61664;48.112;11.662;2023-02-11T09:28:56;5.90;;;4.95;;
31378;SDS011;61664;48.112;11.662;2023-02-11T09:31:24;7.50;;;5.50;;
31378;SDS011;61664;48.112;11.662;2023-02-11T09:33:57;6.38;;;4.75;;
31378;SDS011;61664;48.112;11.662;2023-02-11T09:36:28;5.97;;;4.43;;
31378;SDS011;61664;48.112;11.662;2023-02-11T09:38:59;9.73;;;5.60;;
31378;SDS011;61664;48.112;11.662;2023-02-11T09:41:34;8.20;;;5.22;;
31378;SDS011;61664;48.112;11.662;2023-02-11T09:44:21;5.57;;;4.15;;
31378;SDS011;61664;48.112;11.662;2023-02-11T09:46:57;7.90;;;4.55;;
31378;SDS011;61664;48.112;11.662;2023-02-11T09:49:44;6.72;;;4.53;;
31378;SDS011;61664;48.112;11.662;2023-02-11T09:55:24;4.72;;;4.10;;
31378;SDS011;61664;48.112;11.662;2023-02-11T09:58:12;8.55;;;4.28;;
31378;SDS011;61664;48.112;11.662;2023-02-11T10:00:55;7.53;;;4.60;;
31378;SDS011;61664;48.112;11.662;2023-02-11T10:18:29;6.95;;;5.15;;
31378;SDS011;61664;48.112;11.662;2023-02-11T10:24:09;6.70;;;5.18;;
31378;SDS011;61664;48.112;11.662;2023-02-11T10:26:39;8.73;;;5.70;;
31378;SDS011;61664;48.112;11.662;2023-02-11T10:29:12;8.50;;;5.40;;
31378;SDS011;61664;48.112;11.662;2023-02-11T10:32:05;10.55;;;5.22;;
31378;SDS011;61664;48.112;11.662;2023-02-11T10:34:45;8.02;;;5.95;;
31378;SDS011;61664;48.112;11.662;2023-02-11T10:37:12;6.78;;;5.15;;
31378;SDS011;61664;48.112;11.662;2023-02-11T10:39:40;5.80;;;5.13;;
31378;SDS011;61664;48.112;11.662;2023-02-11T10:42:10;7.20;;;5.65;;
31378;SDS011;61664;48.112;11.662;2023-02-11T10:44:58;9.30;;;5.70;;
31378;SDS011;61664;48.112;11.662;2023-02-11T10:47:33;15.80;;;6.70;;
31378;SDS011;61664;48.112;11.662;2023-02-11T10:53:16;7.82;;;5.63;;
31378;SDS011;61664;48.112;11.662;2023-02-11T10:55:50;11.55;;;5.93;;
31378;SDS011;61664;48.112;11.662;2023-02-11T10:58:24;9.45;;;6.32;;
31378;SDS011;61664;48.112;11.662;2023-02-11T11:01:02;9.13;;;5.82;;
31378;SDS011;61664;48.112;11.662;2023-02-11T11:03:49;8.15;;;6.20;;
31378;SDS011;61664;48.112;11.662;2023-02-11T11:06:27;9.13;;;6.35;;
31378;SDS011;61664;48.112;11.662;2023-02-11T11:08:59;12.15;;;6.50;;
31378;SDS011;61664;48.112;11.662;2023-02-11T11:11:27;9.75;;;7.35;;
31378;SDS011;61664;48.112;11.662;2023-02-11T11:13:56;9.20;;;6.30;;
31378;SDS011;61664;48.112;11.662;2023-02-11T11:16:26;11.73;;;6.57;;
31378;SDS011;61664;48.112;11.662;2023-02-11T11:24:19;8.13;;;6.50;;
31378;SDS011;61664;48.112;11.662;2023-02-11T11:26:59;8.05;;;5.20;;
31378;SDS011;61664;48.112;11.662;2023-02-11T11:29:36;7.75;;;5.68;;
31378;SDS011;61664;48.112;11.662;2023-02-11T11:32:12;10.30;;;5.60;;
31378;SDS011;61664;48.112;11.662;2023-02-11T11:34:54;10.55;;;6.90;;
31378;SDS011;61664;48.112;11.662;2023-02-11T11:37:27;7.78;;;6.00;;
31378;SDS011;61664;48.112;11.662;2023-02-11T11:42:42;7.85;;;5.32;;
31378;SDS011;61664;48.112;11.662;2023-02-11T11:47:52;7.72;;;5.70;;
31378;SDS011;61664;48.112;11.662;2023-02-11T11:50:26;9.63;;;6.15;;
31378;SDS011;61664;48.112;11.662;2023-02-11T11:56:28;8.32;;;5.30;;
31378;SDS011;61664;48.112;11.662;2023-02-11T12:08:03;5.53;;;4.78;;
31378;SDS011;61664;48.112;11.662;2023-02-11T12:14:14;7.18;;;5.45;;
31378;SDS011;61664;48.112;11.662;2023-02-11T12:17:08;5.80;;;4.53;;
31378;SDS011;61664;48.112;11.662;2023-02-11T12:23:10;10.02;;;5.57;;
31378;SDS011;61664;48.112;11.662;2023-02-11T12:42:59;7.40;;;5.13;;
31378;SDS011;61664;48.112;11.662;2023-02-11T12:49:09;6.22;;;5.03;;
31378;SDS011;61664;48.112;11.662;2023-02-11T12:52:16;5.85;;;4.72;;
31378;SDS011;61664;48.112;11.662;2023-02-11T12:55:11;5.10;;;4.60;;
31378;SDS011;61664;48.112;11.662;2023-02-11T12:57:47;6.38;;;4.53;;
31378;SDS011;61664;48.112;11.662;2023-02-11T13:00:28;7.73;;;5.43;;
31378;SDS011;61664;48.112;11.662;2023-02-11T13:03:28;7.00;;;4.88;;
31378;SDS011;61664;48.112;11.662;2023-02-11T13:06:08;10.48;;;5.30;;
31378;SDS011;61664;48.112;11.662;2023-02-11T13:08:49;9.88;;;4.75;;
31378;SDS011;61664;48.112;11.662;2023-02-11T13:11:28;8.13;;;4.93;;
31378;SDS011;61664;48.112;11.662;2023-02-11T13:27:56;8.77;;;5.13;;
31378;SDS011;61664;48.112;11.662;2023-02-11T13:30:48;9.23;;;5.88;;
31378;SDS011;61664;48.112;11.662;2023-02-11T13:33:34;11.63;;;6.57;;
31378;SDS011;61664;48.112;11.662;2023-02-11T13:36:12;9.43;;;6.00;;
31378;SDS011;61664;48.112;11.662;2023-02-11T13:38:50;8.30;;;5.97;;
31378;SDS011;61664;48.112;11.662;2023-02-11T13:41:31;10.23;;;5.85;;
31378;SDS011;61664;48.112;11.662;2023-02-11T13:49:31;8.00;;;5.50;;
31378;SDS011;61664;48.112;11.662;2023-02-11T13:55:06;9.88;;;6.10;;
31378;SDS011;61664;48.112;11.662;2023-02-11T14:11:41;12.02;;;6.47;;
31378;SDS011;61664;48.112;11.662;2023-02-11T14:19:33;9.77;;;6.63;;
31378;SDS011;61664;48.112;11.662;2023-02-11T14:24:53;7.60;;;5.05;;
31378;SDS011;61664;48.112;11.662;2023-02-11T14:27:34;7.82;;;5.50;;
31378;SDS011;61664;48.112;11.662;2023-02-11T14:30:25;6.57;;;4.57;;
31378;SDS011;61664;48.112;11.662;2023-02-11T14:33:21;6.07;;;4.50;;
31378;SDS011;61664;48.112;11.662;2023-02-11T14:39:07;10.00;;;6.50;;
31378;SDS011;61664;48.112;11.662;2023-02-11T14:41:47;11.68;;;6.97;;
31378;SDS011;61664;48.112;11.662;2023-02-11T14:46:50;12.40;;;6.10;;
31378;SDS011;61664;48.112;11.662;2023-02-11T14:51:53;10.88;;;6.50;;
31378;SDS011;61664;48.112;11.662;2023-02-11T14:54:44;8.57;;;6.25;;
31378;SDS011;61664;48.112;11.662;2023-02-11T14:57:17;6.28;;;5.18;;
31378;SDS011;61664;48.112;11.662;2023-02-11T14:59:58;6.53;;;5.55;;
31378;SDS011;61664;48.112;11.662;2023-02-11T15:02:34;6.00;;;4.68;;
31378;SDS011;61664;48.112;11.662;2023-02-11T15:05:24;5.22;;;4.57;;
31378;SDS011;61664;48.112;11.662;2023-02-11T15:07:55;4.97;;;4.10;;
31378;SDS011;61664;48.112;11.662;2023-02-11T15:10:30;15.55;;;6.22;;
31378;SDS011;61664;48.112;11.662;2023-02-11T15:13:08;7.93;;;5.57;;
31378;SDS011;61664;48.112;11.662;2023-02-11T15:15:48;6.00;;;5.13;;
31378;SDS011;61664;48.112;11.662;2023-02-11T15:18:21;10.63;;;7.10;;
31378;SDS011;61664;48.112;11.662;2023-02-11T15:20:54;10.90;;;7.93;;
31378;SDS011;61664;48.112;11.662;2023-02-11T15:23:24;11.43;;;7.65;;
31378;SDS011;61664;48.112;11.662;2023-02-11T15:28:23;7.43;;;5.80;;
31378;SDS011;61664;48.112;11.662;2023-02-11T15:31:00;9.75;;;6.68;;
31378;SDS011;61664;48.112;11.662;2023-02-11T15:33:49;9.05;;;6.13;;
31378;SDS011;61664;48.112;11.662;2023-02-11T15:36:19;10.77;;;7.20;;
31378;SDS011;61664;48.112;11.662;2023-02-11T15:42:19;10.55;;;7.13;;
31378;SDS011;61664;48.112;11.662;2023-02-11T15:44:47;10.15;;;6.65;;
31378;SDS011;61664;48.112;11.662;2023-02-11T15:47:33;9.00;;;7.10;;
31378;SDS011;61664;48.112;11.662;2023-02-11T15:50:01;9.52;;;7.30;;
31378;SDS011;61664;48.112;11.662;2023-02-11T15:52:28;11.73;;;8.00;;
31378;SDS011;61664;48.112;11.662;2023-02-11T15:54:57;11.70;;;8.10;;
31378;SDS011;61664;48.112;11.662;2023-02-11T15:57:27;10.50;;;7.38;;
31378;SDS011;61664;48.112;11.662;2023-02-11T15:59:55;12.73;;;7.90;;
31378;SDS011;61664;48.112;11.662;2023-02-11T16:02:30;13.02;;;8.35;;
31378;SDS011;61664;48.112;11.662;2023-02-11T16:05:03;12.00;;;8.68;;
31378;SDS011;61664;48.112;11.662;2023-02-11T16:07:37;10.20;;;7.25;;
31378;SDS011;61664;48.112;11.662;2023-02-11T16:10:27;12.90;;;8.88;;
31378;SDS011;61664;48.112;11.662;2023-02-11T16:15:44;12.73;;;8.85;;
31378;SDS011;61664;48.112;11.662;2023-02-11T16:18:21;12.68;;;8.05;;
31378;SDS011;61664;48.112;11.662;2023-02-11T16:21:06;10.43;;;7.63;;
31378;SDS011;61664;48.112;11.662;2023-02-11T16:23:41;14.05;;;9.30;;
31378;SDS011;61664;48.112;11.662;2023-02-11T16:29:12;10.10;;;8.50;;
31378;SDS011;61664;48.112;11.662;2023-02-11T16:31:45;11.55;;;8.60;;
31378;SDS011;61664;48.112;11.662;2023-02-11T16:34:15;12.07;;;8.63;;
31378;SDS011;61664;48.112;11.662;2023-02-11T16:36:49;13.88;;;8.98;;
31378;SDS011;61664;48.112;11.662;2023-02-11T16:39:17;14.55;;;9.50;;
31378;SDS011;61664;48.112;11.662;2023-02-11T16:41:49;16.55;;;11.00;;
31378;SDS011;61664;48.112;11.662;2023-02-11T16:44:17;14.57;;;9.15;;
31378;SDS011;61664;48.112;11.662;2023-02-11T16:46:44;13.82;;;9.13;;
31378;SDS011;61664;48.112;11.662;2023-02-11T16:51:58;14.68;;;9.93;;
31378;SDS011;61664;48.112;11.662;2023-02-11T16:54:28;18.00;;;12.07;;
31378;SDS011;61664;48.112;11.662;2023-02-11T16:56:55;19.77;;;12.90;;
31378;SDS011;61664;48.112;11.662;2023-02-11T16:59:23;19.90;;;12.57;;
31378;SDS011;61664;48.112;11.662;2023-02-11T17:01:50;19.48;;;12.80;;
31378;SDS011;61664;48.112;11.662;2023-02-11T17:04:25;20.83;;;12.65;;
31378;SDS011;61664;48.112;11.662;2023-02-11T17:06:55;19.27;;;12.20;;
31378;SDS011;61664;48.112;11.662;2023-02-11T17:09:24;16.25;;;11.77;;
31378;SDS011;61664;48.112;11.662;2023-02-11T17:11:56;16.15;;;10.95;;
31378;SDS011;61664;48.112;11.662;2023-02-11T17:14:23;19.10;;;11.70;;
31378;SDS011;61664;48.112;11.662;2023-02-11T17:16:49;19.08;;;12.43;;
31378;SDS011;61664;48.112;11.662;2023-02-11T17:19:18;19.92;;;12.55;;
31378;SDS011;61664;48.112;11.662;2023-02-11T17:21:48;19.20;;;12.38;;
31378;SDS011;61664;48.112;11.662;2023-02-11T17:24:17;17.48;;;11.60;;
31378;SDS011;61664;48.112;11.662;2023-02-11T17:26:47;19.75;;;12.32;;
31378;SDS011;61664;48.112;11.662;2023-02-11T17:29:16;16.83;;;11.63;;
31378;SDS011;61664;48.112;11.662;2023-02-11T17:31:47;20.60;;;12.77;;
31378;SDS011;61664;48.112;11.662;2023-02-11T17:34:15;19.02;;;11.32;;
31378;SDS011;61664;48.112;11.662;2023-02-11T17:36:43;20.90;;;11.98;;
31378;SDS011;61664;48.112;11.662;2023-02-11T17:39:10;16.55;;;11.07;;
31378;SDS011;61664;48.112;11.662;2023-02-11T17:41:37;16.75;;;11.02;;
31378;SDS011;61664;48.112;11.662;2023-02-11T17:44:05;19.65;;;12.48;;
31378;SDS011;61664;48.112;11.662;2023-02-11T17:46:35;14.88;;;10.18;;
31378;SDS011;61664;48.112;11.662;2023-02-11T17:49:02;16.48;;;10.80;;
31378;SDS011;61664;48.112;11.662;2023-02-11T17:51:31;26.05;;;12.00;;
31378;SDS011;61664;48.112;11.662;2023-02-11T17:54:07;16.17;;;11.20;;
31378;SDS011;61664;48.112;11.662;2023-02-11T17:56:42;17.60;;;11.05;;
31378;SDS011;61664;48.112;11.662;2023-02-11T17:59:10;15.95;;;11.05;;
31378;SDS011;61664;48.112;11.662;2023-02-11T18:01:39;17.75;;;11.05;;
31378;SDS011;61664;48.112;11.662;2023-02-11T18:04:09;15.07;;;10.30;;
31378;SDS011;61664;48.112;11.662;2023-02-11T18:06:43;20.25;;;10.90;;
31378;SDS011;61664;48.112;11.662;2023-02-11T18:09:11;21.10;;;13.10;;
31378;SDS011;61664;48.112;11.662;2023-02-11T18:11:38;22.38;;;13.30;;
31378;SDS011;61664;48.112;11.662;2023-02-11T18:14:06;21.40;;;13.25;;
31378;SDS011;61664;48.112;11.662;2023-02-11T18:16:34;21.77;;;12.05;;
31378;SDS011;61664;48.112;11.662;2023-02-11T18:19:04;19.55;;;12.38;;
31378;SDS011;61664;48.112;11.662;2023-02-11T18:21:32;17.95;;;11.75;;